createdAt,value
2023-04-15T00:00:04.821Z,978.34
2023-04-15T00:01:02.982Z,978.3477
2023-04-15T00:02:02.466Z,978.2281
2023-04-15T00:03:04.773Z,978.2566
2023-04-15T00:04:03.826Z,978.1435
2023-04-15T00:05:02.731Z,978.1654
2023-04-15T00:06:04.868Z,978.1654
2023-04-15T00:07:02.363Z,978.2003
2023-04-15T00:08:02.925Z,978.234
2023-04-15T00:09:04.999Z,978.1654
2023-04-15T00:10:04.801Z,978.2003
2023-04-15T00:11:03.811Z,978.0316
2023-04-15T00:12:04.539Z,978.1938
2023-04-15T00:13:02.521Z,978.2909
2023-04-15T00:14:05.731Z,978.2566
2023-04-15T00:15:03.389Z,978.1234
2023-04-15T00:16:04.658Z,978.2306
2023-04-15T00:17:04.347Z,978.1015
2023-04-15T00:18:04.670Z,978.1234
2023-04-15T00:19:03.526Z,978.1169
2023-04-15T00:20:03.495Z,978.1518
2023-04-15T00:21:03.060Z,978.2223
2023-04-15T00:22:02.590Z,978.2306
2023-04-15T00:23:02.282Z,978.1169
2023-04-15T00:24:04.902Z,978.0471
2023-04-15T00:25:04.799Z,978.2241
2023-04-15T00:26:04.377Z,978.1737
2023-04-15T00:27:02.863Z,978.0601
2023-04-15T00:28:04.428Z,978.0316
2023-04-15T00:29:05.555Z,978.1654
2023-04-15T00:30:04.382Z,978.0097
2023-04-15T00:31:04.774Z,978.1169
2023-04-15T00:32:03.131Z,978.0885
2023-04-15T00:33:02.761Z,977.9949
2023-04-15T00:34:03.585Z,978.0316
2023-04-15T00:35:03.288Z,978.0601
2023-04-15T00:36:03.038Z,977.9748
2023-04-15T00:37:03.436Z,978.0316
2023-04-15T00:38:03.013Z,978.0316
2023-04-15T00:39:05.768Z,978.1234
2023-04-15T00:40:02.999Z,978.0252
2023-04-15T00:41:03.783Z,978.0316
2023-04-15T00:42:03.475Z,977.9748
2023-04-15T00:43:03.058Z,978.0316
2023-04-15T00:44:04.834Z,977.9269
2023-04-15T00:45:03.614Z,978.0968
2023-04-15T00:46:04.522Z,978.0116
2023-04-15T00:47:03.164Z,977.9399
2023-04-15T00:48:02.707Z,977.9464
2023-04-15T00:49:06.554Z,978.0601
2023-04-15T00:50:03.752Z,978.0316
2023-04-15T00:51:03.750Z,978.0601
2023-04-15T00:52:03.451Z,978.0885
2023-04-15T00:53:05.683Z,977.9464
2023-04-15T00:54:03.483Z,977.9399
2023-04-15T00:55:03.469Z,978.0316
2023-04-15T00:56:03.164Z,978.1453
2023-04-15T00:57:03.092Z,977.918
2023-04-15T00:58:02.975Z,977.9464
2023-04-15T00:59:03.535Z,978.0601
2023-04-15T01:00:04.716Z,977.8611
2023-04-15T01:01:03.757Z,977.918
2023-04-15T01:02:05.377Z,977.918
2023-04-15T01:03:03.451Z,977.9529
2023-04-15T01:04:05.379Z,977.9115
2023-04-15T01:05:05.123Z,977.918
2023-04-15T01:06:03.899Z,977.8611
2023-04-15T01:07:03.124Z,977.8611
2023-04-15T01:08:03.565Z,978.0316
2023-04-15T01:09:06.369Z,978.04
2023-04-15T01:10:03.661Z,977.9831
2023-04-15T01:11:03.552Z,977.9263
2023-04-15T01:12:04.876Z,977.9618
2023-04-15T01:13:03.264Z,977.9464
2023-04-15T01:14:04.301Z,978.0032
2023-04-15T01:15:03.610Z,977.9464
2023-04-15T01:16:04.117Z,977.719
2023-04-15T01:17:05.599Z,977.8676
2023-04-15T01:18:03.384Z,977.7824
2023-04-15T01:19:06.188Z,977.8043
2023-04-15T01:20:04.802Z,977.6906
2023-04-15T01:21:03.570Z,977.8043
2023-04-15T01:22:02.703Z,977.8043
2023-04-15T01:23:05.668Z,977.918
2023-04-15T01:24:05.068Z,977.8611
2023-04-15T01:25:03.774Z,977.9096
2023-04-15T01:26:02.523Z,977.8611
2023-04-15T01:27:03.055Z,977.719
2023-04-15T01:28:02.803Z,977.918
2023-04-15T01:29:05.444Z,977.6841
2023-04-15T01:30:03.351Z,977.918
2023-04-15T01:31:03.603Z,977.8043
2023-04-15T01:32:05.157Z,977.7978
2023-04-15T01:33:04.118Z,977.8411
2023-04-15T01:34:06.332Z,977.6931
2023-04-15T01:35:03.961Z,977.7629
2023-04-15T01:36:04.786Z,977.719
2023-04-15T01:37:02.567Z,977.8327
2023-04-15T01:38:02.191Z,977.7215
2023-04-15T01:39:05.457Z,977.8003
2023-04-15T01:40:03.722Z,977.8133
2023-04-15T01:41:04.496Z,977.7913
2023-04-15T01:43:03.561Z,977.6246
2023-04-15T01:44:03.649Z,977.6666
2023-04-15T01:45:03.440Z,977.7234
2023-04-15T01:46:03.031Z,977.6737
2023-04-15T01:47:03.450Z,977.5394
2023-04-15T01:48:03.152Z,977.6666
2023-04-15T01:49:05.809Z,977.695
2023-04-15T01:50:03.329Z,977.6117
2023-04-15T01:51:03.407Z,977.5987
2023-04-15T01:52:03.853Z,977.507
2023-04-15T01:53:03.751Z,977.5639
2023-04-15T01:54:03.773Z,977.4722
2023-04-15T01:55:05.121Z,977.691
2023-04-15T01:56:03.972Z,977.5787
2023-04-15T01:57:05.415Z,977.5089
2023-04-15T01:58:04.483Z,977.6071
2023-04-15T01:59:05.719Z,977.5373
2023-04-15T02:00:04.746Z,977.6071
2023-04-15T02:01:04.107Z,977.5942
2023-04-15T02:02:02.664Z,977.691
2023-04-15T02:03:02.316Z,977.5419
2023-04-15T02:04:06.038Z,977.4237
2023-04-15T02:05:05.002Z,977.4237
2023-04-15T02:06:02.350Z,977.3798
2023-04-15T02:07:04.767Z,977.4722
2023-04-15T02:08:02.474Z,977.3869
2023-04-15T02:09:05.959Z,977.3953
2023-04-15T02:10:03.608Z,977.4082
2023-04-15T02:11:02.828Z,977.465
2023-04-15T02:12:03.987Z,977.4153
2023-04-15T02:13:02.869Z,977.4385
2023-04-15T02:14:05.462Z,977.2817
2023-04-15T02:15:03.596Z,977.3882
2023-04-15T02:16:04.000Z,977.3953
2023-04-15T02:17:05.422Z,977.4082
2023-04-15T02:18:03.068Z,977.2533
2023-04-15T02:19:03.403Z,977.2817
2023-04-15T02:20:03.696Z,977.3514
2023-04-15T02:21:03.347Z,977.2378
2023-04-15T02:22:03.960Z,977.2397
2023-04-15T02:23:03.131Z,977.2403
2023-04-15T02:24:05.383Z,977.2746
2023-04-15T02:25:05.840Z,977.168
2023-04-15T02:26:03.758Z,977.1893
2023-04-15T02:27:05.579Z,977.2397
2023-04-15T02:28:05.227Z,977.3255
2023-04-15T02:29:04.850Z,977.1829
2023-04-15T02:30:03.312Z,977.2248
2023-04-15T02:31:03.905Z,977.1312
2023-04-15T02:32:03.000Z,977.2378
2023-04-15T02:33:02.797Z,977.168
2023-04-15T02:34:05.531Z,977.2378
2023-04-15T02:35:03.379Z,977.0105
2023-04-15T02:36:02.945Z,977.2378
2023-04-15T02:37:03.209Z,977.0744
2023-04-15T02:38:02.551Z,977.3146
2023-04-15T02:39:05.646Z,977.1312
2023-04-15T02:40:03.981Z,977.0957
2023-04-15T02:41:03.026Z,977.0673
2023-04-15T02:42:02.578Z,976.904
2023-04-15T02:43:02.240Z,977.0744
2023-04-15T02:44:03.442Z,977.0176
2023-04-15T02:45:03.004Z,976.9324
2023-04-15T02:46:03.790Z,976.9104
2023-04-15T02:47:03.583Z,977.0086
2023-04-15T02:48:03.542Z,977.037
2023-04-15T02:49:05.593Z,977.0176
2023-04-15T02:50:03.103Z,977.0305
2023-04-15T02:51:05.010Z,977.0873
2023-04-15T02:52:03.270Z,977.0873
2023-04-15T02:53:02.375Z,977.1442
2023-04-15T02:54:06.115Z,977.0744
2023-04-15T02:55:03.862Z,977.0176
2023-04-15T02:56:05.185Z,977.1003
2023-04-15T02:57:03.256Z,977.046
2023-04-15T02:58:04.035Z,977.046
2023-04-15T02:59:04.162Z,977.1506
2023-04-15T03:00:03.468Z,977.1571
2023-04-15T03:01:02.958Z,977.0434
2023-04-15T03:02:03.603Z,977.0434
2023-04-15T03:03:03.482Z,977.037
2023-04-15T03:04:05.611Z,977.0021
2023-04-15T03:05:04.341Z,977.0525
2023-04-15T03:06:03.327Z,976.9388
2023-04-15T03:07:03.639Z,976.8755
2023-04-15T03:08:05.384Z,976.904
2023-04-15T03:09:06.084Z,976.9608
2023-04-15T03:10:05.254Z,976.9253
2023-04-15T03:11:02.933Z,976.904
2023-04-15T03:12:03.100Z,977.0086
2023-04-15T03:13:02.961Z,976.9537
2023-04-15T03:14:03.692Z,976.9253
2023-04-15T03:15:03.130Z,976.9608
2023-04-15T03:16:03.917Z,976.9692
2023-04-15T03:17:04.784Z,976.9976
2023-04-15T03:18:04.943Z,976.9253
2023-04-15T03:19:03.714Z,977.046
2023-04-15T03:20:03.850Z,976.8969
2023-04-15T03:21:03.543Z,977.0105
2023-04-15T03:22:03.175Z,977.0176
2023-04-15T03:23:03.386Z,976.9408
2023-04-15T03:24:05.658Z,976.9847
2023-04-15T03:25:03.768Z,976.9905
2023-04-15T03:26:02.978Z,977.0544
2023-04-15T03:27:03.198Z,977.1241
2023-04-15T03:28:03.115Z,977.0983
2023-04-15T03:29:03.560Z,976.8994
2023-04-15T03:30:03.541Z,977.0757
2023-04-15T03:31:03.962Z,976.9408
2023-04-15T03:32:03.750Z,976.8839
2023-04-15T03:33:03.109Z,977.1241
2023-04-15T03:34:05.630Z,976.9976
2023-04-15T03:35:04.062Z,976.9408
2023-04-15T03:36:03.572Z,976.8684
2023-04-15T03:37:02.938Z,976.9337
2023-04-15T03:38:05.512Z,976.7852
2023-04-15T03:39:03.648Z,976.9621
2023-04-15T03:40:03.265Z,976.8555
2023-04-15T03:41:03.439Z,976.8484
2023-04-15T03:42:02.985Z,976.8839
2023-04-15T03:43:03.176Z,976.9253
2023-04-15T03:44:04.333Z,976.9408
2023-04-15T03:45:03.568Z,976.9408
2023-04-15T03:46:03.235Z,976.9905
2023-04-15T03:47:03.280Z,977.0983
2023-04-15T03:48:16.589Z,977.0473
2023-04-15T03:49:03.660Z,976.984
2023-04-15T03:50:04.044Z,976.8839
2023-04-15T03:51:02.860Z,977.0105
2023-04-15T03:52:02.632Z,976.84
2023-04-15T03:53:02.927Z,976.9324
2023-04-15T03:54:03.629Z,976.904
2023-04-15T03:55:03.346Z,976.8271
2023-04-15T03:56:03.980Z,976.9956
2023-04-15T03:57:03.631Z,976.8969
2023-04-15T03:58:04.749Z,976.8969
2023-04-15T03:59:03.931Z,976.82
2023-04-15T04:00:03.487Z,976.871
2023-04-15T04:01:03.257Z,976.8639
2023-04-15T04:02:03.982Z,976.9337
2023-04-15T04:03:05.290Z,976.8988
2023-04-15T04:04:04.041Z,977.006
2023-04-15T04:05:04.280Z,977.148
2023-04-15T04:07:03.566Z,977.006
2023-04-15T04:08:03.233Z,977.0912
2023-04-15T04:09:05.811Z,976.8923
2023-04-15T04:10:03.540Z,976.8639
2023-04-15T04:11:05.765Z,977.0912
2023-04-15T04:12:04.005Z,977.0912
2023-04-15T04:13:03.171Z,976.8639
2023-04-15T04:14:03.697Z,976.8988
2023-04-15T04:15:03.314Z,976.8484
2023-04-15T04:16:03.970Z,976.7852
2023-04-15T04:17:03.763Z,976.9337
2023-04-15T04:18:04.550Z,976.8988
2023-04-15T04:19:04.053Z,976.8988
2023-04-15T04:20:05.546Z,976.871
2023-04-15T04:21:03.927Z,977.0912
2023-04-15T04:22:03.616Z,977.1196
2023-04-15T04:23:04.142Z,976.9207
2023-04-15T04:24:04.504Z,977.0983
2023-04-15T04:25:03.982Z,976.9776
2023-04-15T04:26:03.733Z,976.9776
2023-04-15T04:27:03.424Z,976.871
2023-04-15T04:28:06.202Z,976.8988
2023-04-15T04:29:05.524Z,976.8639
2023-04-15T04:30:03.667Z,977.0912
2023-04-15T04:31:03.603Z,977.0912
2023-04-15T04:32:04.031Z,977.0912
2023-04-15T04:33:03.222Z,977.0912
2023-04-15T04:34:05.736Z,976.8839
2023-04-15T04:35:03.306Z,976.9556
2023-04-15T04:36:03.816Z,977.0912
2023-04-15T04:37:03.579Z,977.1196
2023-04-15T04:38:05.320Z,977.0912
2023-04-15T04:39:06.184Z,977.0912
2023-04-15T04:40:03.625Z,977.0912
2023-04-15T04:41:03.295Z,977.0873
2023-04-15T04:42:04.252Z,977.0305
2023-04-15T04:43:03.664Z,976.9098
2023-04-15T04:44:04.293Z,977.006
2023-04-15T04:45:03.436Z,976.9776
2023-04-15T04:46:03.039Z,977.148
2023-04-15T04:47:02.882Z,977.0912
2023-04-15T04:48:02.448Z,977.0912
2023-04-15T04:49:05.743Z,977.0912
2023-04-15T04:50:03.435Z,977.1196
2023-04-15T04:51:03.715Z,977.006
2023-04-15T04:52:03.337Z,977.1764
2023-04-15T04:53:04.104Z,977.2048
2023-04-15T04:54:04.824Z,977.2048
2023-04-15T04:55:03.353Z,977.4037
2023-04-15T04:56:04.041Z,977.2009
2023-04-15T04:57:05.180Z,977.2358
2023-04-15T04:58:04.185Z,977.2926
2023-04-15T04:59:04.386Z,977.2048
2023-04-15T05:00:05.408Z,977.2074
2023-04-15T05:01:02.878Z,977.3184
2023-04-15T06:33:03.631Z,977.1907
2023-04-15T06:34:06.141Z,977.1255
2023-04-15T06:35:03.852Z,977.4672
2023-04-15T06:36:03.404Z,977.495
2023-04-15T06:37:05.785Z,977.572
2023-04-15T06:38:03.134Z,977.4079
2023-04-15T06:39:05.229Z,977.5371
2023-04-15T06:40:03.135Z,977.6069
2023-04-15T06:41:03.737Z,977.572
2023-04-15T06:42:03.694Z,977.6618
2023-04-15T06:43:03.224Z,977.4848
2023-04-15T06:44:03.603Z,977.6967
2023-04-15T06:45:03.157Z,977.4079
2023-04-15T06:46:04.154Z,977.3859
2023-04-15T06:47:03.872Z,977.6618
2023-04-15T06:48:03.769Z,977.6069
2023-04-15T06:49:04.943Z,977.572
2023-04-15T06:50:03.671Z,977.572
2023-04-15T06:51:03.998Z,977.4208
2023-04-15T06:52:04.033Z,977.4693
2023-04-15T06:53:03.144Z,977.6858
2023-04-15T06:54:05.566Z,977.3769
2023-04-15T06:55:03.881Z,977.7427
2023-04-15T06:56:03.693Z,977.4622
2023-04-15T06:57:03.078Z,977.9133
2023-04-15T06:58:03.789Z,977.6574
2023-04-15T06:59:05.472Z,977.6161
2023-04-15T07:00:04.930Z,977.5236
2023-04-15T07:01:03.348Z,977.5307
2023-04-15T07:02:06.270Z,977.4797
2023-04-15T07:03:05.843Z,977.4578
2023-04-15T07:04:04.408Z,977.5063
2023-04-15T07:05:03.124Z,977.5696
2023-04-15T07:06:03.230Z,977.344
2023-04-15T07:07:03.741Z,977.2871
2023-04-15T07:08:05.233Z,977.3007
2023-04-15T07:09:05.914Z,977.3906
2023-04-15T07:10:03.989Z,977.2898
2023-04-15T07:11:05.196Z,977.4604
2023-04-15T07:12:03.591Z,977.4669
2023-04-15T07:13:03.509Z,977.6027
2023-04-15T07:14:04.366Z,977.5742
2023-04-15T07:15:03.700Z,977.3751
2023-04-15T07:16:03.528Z,977.41
2023-04-15T07:17:04.302Z,977.5044
2023-04-15T07:18:05.496Z,977.5897
2023-04-15T07:19:05.754Z,977.5328
2023-04-15T07:20:03.212Z,977.6601
2023-04-15T07:21:03.866Z,977.5328
2023-04-15T07:22:03.419Z,977.6731
2023-04-15T07:23:03.093Z,977.4759
2023-04-15T07:24:05.433Z,977.5108
2023-04-15T07:25:03.821Z,977.432
2023-04-15T07:26:04.885Z,977.5458
2023-04-15T07:27:03.427Z,977.6795
2023-04-15T07:28:05.462Z,977.509
2023-04-15T07:29:04.279Z,977.4579
2023-04-15T07:30:03.720Z,977.6137
2023-04-15T07:31:03.385Z,977.5698
2023-04-15T07:32:03.164Z,977.5911
2023-04-15T07:33:03.821Z,977.5213
2023-04-15T07:34:04.086Z,977.4579
2023-04-15T07:35:05.315Z,977.4864
2023-04-15T07:36:03.190Z,977.7404
2023-04-15T07:37:05.845Z,977.5698
2023-04-15T07:38:03.418Z,977.5414
2023-04-15T07:39:03.982Z,977.5543
2023-04-15T07:40:02.904Z,977.6112
2023-04-15T07:41:03.670Z,977.5543
2023-04-15T07:42:03.145Z,977.7224
2023-04-15T07:43:04.096Z,977.5667
2023-04-15T07:44:05.483Z,977.5162
2023-04-15T07:45:03.339Z,977.6701
2023-04-15T07:46:03.880Z,977.5951
2023-04-15T07:47:03.549Z,977.5583
2023-04-15T07:48:04.923Z,977.5913
2023-04-15T07:49:05.599Z,977.6043
2023-04-15T07:50:03.155Z,977.6043
2023-04-15T07:51:04.003Z,977.6198
2023-04-15T07:52:03.836Z,977.6942
2023-04-15T07:53:03.265Z,977.5585
2023-04-15T07:54:03.601Z,977.6154
2023-04-15T07:55:04.069Z,977.7208
2023-04-15T07:56:03.643Z,977.6923
2023-04-15T07:57:03.355Z,977.6639
2023-04-15T07:58:03.360Z,977.7551
2023-04-15T07:59:04.599Z,977.7118
2023-04-15T08:00:06.163Z,977.7183
2023-04-15T08:02:03.699Z,977.5779
2023-04-15T08:03:04.308Z,977.6613
2023-04-15T08:04:04.136Z,977.5934
2023-04-15T08:05:03.598Z,977.7622
2023-04-15T08:06:03.319Z,977.7183
2023-04-15T08:07:04.200Z,977.7183
2023-04-15T08:08:03.654Z,977.7015
2023-04-15T08:09:06.175Z,977.7384
2023-04-15T08:10:03.932Z,977.5974
2023-04-15T08:11:03.614Z,977.6731
2023-04-15T08:13:05.296Z,977.7145
2023-04-15T08:14:04.807Z,977.7844
2023-04-15T08:15:04.235Z,977.8194
2023-04-15T08:16:05.700Z,977.7315
2023-04-15T08:17:05.394Z,977.9314
2023-04-15T08:18:03.461Z,977.8079
2023-04-15T08:19:06.224Z,977.694
2023-04-15T08:20:04.312Z,977.707
2023-04-15T08:21:03.578Z,977.6047
2023-04-15T08:22:03.264Z,977.7256
2023-04-15T08:23:03.896Z,977.9664
2023-04-15T08:24:05.092Z,977.9593
2023-04-15T08:25:03.678Z,977.8544
2023-04-15T08:26:03.500Z,977.8965
2023-04-15T08:27:04.958Z,977.9664
2023-04-15T08:28:03.056Z,977.8364
2023-04-15T08:29:07.169Z,978.0642
2023-04-15T08:30:05.352Z,977.8649
2023-04-15T08:31:03.111Z,977.8999
2023-04-15T08:32:04.204Z,978.0642
2023-04-15T08:33:05.116Z,978.0992
2023-04-15T08:34:05.545Z,977.9129
2023-04-15T08:35:04.835Z,977.7924
2023-04-15T08:36:03.820Z,977.9413
2023-04-15T08:37:03.642Z,977.8119
2023-04-15T08:38:03.033Z,977.7751
2023-04-15T08:39:04.496Z,977.832
2023-04-15T08:40:03.407Z,977.7032
2023-04-15T08:41:03.612Z,977.7661
2023-04-15T08:42:03.354Z,977.6988
2023-04-15T08:43:05.750Z,977.8893
2023-04-15T08:44:05.861Z,977.8719
2023-04-15T08:45:04.032Z,977.769
2023-04-15T08:46:03.586Z,977.8871
2023-04-15T08:47:05.136Z,977.8041
2023-04-15T08:48:03.764Z,977.7827
2023-04-15T08:49:05.815Z,977.8112
2023-04-15T08:50:03.296Z,977.95
2023-04-15T08:51:05.654Z,978.0271
2023-04-15T08:52:03.764Z,977.8781
2023-04-15T08:53:03.404Z,977.7991
2023-04-15T08:54:05.453Z,977.9921
2023-04-15T08:55:05.647Z,977.9416
2023-04-15T08:56:03.933Z,977.9416
2023-04-15T08:57:03.352Z,978.0556
2023-04-15T08:58:03.512Z,977.95
2023-04-15T08:59:04.569Z,977.8682
2023-04-15T09:00:05.529Z,978.0606
2023-04-15T09:01:05.130Z,977.937
2023-04-15T09:02:03.598Z,978.0271
2023-04-15T09:03:05.534Z,978.0181
2023-04-15T09:04:16.195Z,978.122
2023-04-15T09:05:03.211Z,977.9574
2023-04-15T09:06:04.707Z,978.0405
2023-04-15T09:07:04.209Z,978.1831
2023-04-15T09:08:05.505Z,977.9943
2023-04-15T09:09:05.528Z,977.9896
2023-04-15T09:10:05.045Z,978.0776
2023-04-15T09:11:05.396Z,978.0646
2023-04-15T09:12:03.279Z,977.937
2023-04-15T09:13:04.489Z,978.108
2023-04-15T09:14:48.749Z,978.108
2023-04-15T09:15:03.398Z,978.178
2023-04-15T09:16:02.984Z,978.178
2023-04-15T09:17:04.060Z,978.0491
2023-04-15T09:18:03.864Z,978.0972
2023-04-15T09:19:05.756Z,978.0953
2023-04-15T09:20:03.609Z,978.0953
2023-04-15T09:21:03.357Z,978.0662
2023-04-15T09:22:03.141Z,978.0405
2023-04-15T09:23:05.308Z,978.0826
2023-04-15T09:24:04.290Z,978.1177
2023-04-15T09:25:03.404Z,977.9596
2023-04-15T09:26:03.001Z,977.953
2023-04-15T09:27:03.892Z,978.2383
2023-04-15T09:28:04.069Z,978.0932
2023-04-15T09:29:04.139Z,977.9772
2023-04-15T09:30:03.925Z,977.9968
2023-04-15T09:31:03.680Z,978.1655
2023-04-15T09:32:03.831Z,978.0008
2023-04-15T09:33:03.055Z,978.1916
2023-04-15T09:34:05.888Z,978.1547
2023-04-15T09:35:03.221Z,978.2558
2023-04-15T09:36:03.947Z,978.0845
2023-04-15T09:37:03.583Z,978.1531
2023-04-15T09:38:03.343Z,978.1484
2023-04-15T09:39:03.700Z,978.4331
2023-04-15T09:40:03.344Z,978.1989
2023-04-15T09:41:04.004Z,978.4051
2023-04-15T09:42:03.728Z,978.4653
2023-04-15T09:43:05.205Z,978.4051
2023-04-15T09:44:04.982Z,978.1816
2023-04-15T09:45:03.336Z,978.2446
2023-04-15T09:46:04.080Z,978.5425
2023-04-15T09:47:03.694Z,978.5044
2023-04-15T09:48:03.097Z,978.2272
2023-04-15T09:49:05.990Z,978.3259
2023-04-15T09:50:03.312Z,978.2598
2023-04-15T09:51:04.000Z,978.396
2023-04-15T09:52:06.650Z,978.2598
2023-04-15T09:53:03.688Z,978.4405
2023-04-15T09:54:03.541Z,978.3394
2023-04-15T09:56:03.670Z,978.3834
2023-04-15T09:57:03.341Z,978.4119
2023-04-15T09:58:05.754Z,978.2949
2023-04-15T09:59:06.423Z,978.2598
2023-04-15T10:00:05.755Z,978.2819
2023-04-15T10:01:04.335Z,978.3061
2023-04-15T10:02:03.869Z,978.3071
2023-04-15T10:03:03.738Z,978.4565
2023-04-15T10:04:04.299Z,978.4206
2023-04-15T10:05:03.566Z,978.5581
2023-04-15T10:06:03.617Z,978.4033
2023-04-15T10:07:04.736Z,978.5402
2023-04-15T10:08:04.348Z,978.47
2023-04-15T10:09:04.805Z,978.47
2023-04-15T10:10:03.313Z,978.6878
2023-04-15T10:11:04.117Z,978.4771
2023-04-15T10:12:05.861Z,978.4296
2023-04-15T10:15:05.439Z,978.4124
2023-04-15T10:16:03.923Z,978.6409
2023-04-15T10:17:03.762Z,978.5338
2023-04-15T10:18:03.395Z,978.454
2023-04-15T10:19:05.986Z,978.5338
2023-04-15T10:20:03.344Z,978.3724
2023-04-15T10:21:05.663Z,978.4491
2023-04-15T10:22:04.098Z,978.4122
2023-04-15T10:23:06.881Z,978.4449
2023-04-15T10:24:05.117Z,978.4188
2023-04-15T10:25:03.372Z,978.4457
2023-04-15T10:26:03.243Z,978.3016
2023-04-15T10:27:03.851Z,978.3237
2023-04-15T10:29:06.078Z,978.707
2023-04-15T10:30:03.296Z,978.4826
2023-04-15T10:31:03.809Z,978.4916
2023-04-15T10:32:05.799Z,978.485
2023-04-15T10:33:03.599Z,978.7201
2023-04-15T10:34:06.938Z,978.4826
2023-04-15T10:35:04.042Z,978.5516
2023-04-15T10:36:04.210Z,978.5802
2023-04-15T10:37:03.002Z,978.6373
2023-04-15T10:38:03.778Z,978.47
2023-04-15T10:39:04.431Z,978.6265
2023-04-15T10:40:03.522Z,978.6486
2023-04-15T10:41:03.202Z,978.4569
2023-04-15T10:42:05.702Z,978.479
2023-04-15T10:43:03.876Z,978.7075
2023-04-15T10:44:06.366Z,978.5516
2023-04-15T10:45:03.449Z,978.5141
2023-04-15T10:46:03.243Z,978.6504
2023-04-15T10:47:05.711Z,978.7165
2023-04-15T10:48:04.132Z,978.6742
2023-04-15T10:49:04.042Z,978.523
2023-04-15T10:50:03.161Z,978.5206
2023-04-15T10:51:03.773Z,978.6878
2023-04-15T10:52:03.568Z,978.7581
2023-04-15T10:53:02.619Z,978.7932
2023-04-15T10:54:05.847Z,978.5825
2023-04-15T10:55:03.943Z,978.5516
2023-04-15T10:56:03.602Z,978.5885
2023-04-15T10:57:02.950Z,978.6742
2023-04-15T10:58:03.656Z,978.7141
2023-04-15T10:59:05.792Z,978.6265
2023-04-15T11:00:04.008Z,978.7164
2023-04-15T11:01:03.754Z,978.6878
2023-04-15T11:27:03.955Z,978.8277
2023-04-15T11:28:05.824Z,978.7174
2023-04-15T11:29:05.713Z,978.9224
2023-04-15T11:30:03.768Z,978.7859
2023-04-15T11:31:03.421Z,978.7526
2023-04-15T11:32:03.264Z,978.9749
2023-04-15T11:33:05.859Z,978.7431
2023-04-15T11:34:04.288Z,978.8462
2023-04-15T11:35:03.359Z,978.8509
2023-04-15T11:36:03.219Z,978.7985
2023-04-15T11:37:03.653Z,978.7746
2023-04-15T11:38:03.532Z,978.8873
2023-04-15T11:39:05.031Z,978.9224
2023-04-15T11:40:05.122Z,979.0035
2023-04-15T11:41:03.663Z,978.8444
2023-04-15T11:42:05.714Z,978.8551
2023-04-15T11:43:05.407Z,978.7544
2023-04-15T11:44:05.566Z,978.8664
2023-04-15T11:45:03.675Z,978.9891
2023-04-15T11:46:03.813Z,979.0266
2023-04-15T11:47:02.931Z,978.9319
2023-04-15T11:48:03.761Z,979.0404
2023-04-15T11:49:05.674Z,978.873
2023-04-15T11:50:03.939Z,979.0279
2023-04-15T11:51:03.357Z,978.9463
2023-04-15T11:52:04.095Z,978.988
2023-04-15T11:53:04.020Z,978.988
2023-04-15T11:54:05.411Z,979.0875
2023-04-15T11:55:03.287Z,978.9504
2023-04-15T11:56:04.128Z,979.1507
2023-04-15T11:57:03.685Z,979.0035
2023-04-15T11:58:03.546Z,979.0356
2023-04-15T11:59:05.565Z,979.0249
2023-04-15T12:00:04.027Z,978.9897
2023-04-15T12:01:03.385Z,979.0314
2023-04-15T12:02:03.301Z,979.2561
2023-04-15T12:03:03.740Z,979.0893
2023-04-15T12:04:05.506Z,979.1017
2023-04-15T12:05:03.237Z,979.1417
2023-04-15T12:06:04.067Z,979.1179
2023-04-15T12:07:03.854Z,979.0983
2023-04-15T12:08:03.632Z,979.0762
2023-04-15T12:09:04.087Z,979.1996
2023-04-15T12:10:03.727Z,979.0983
2023-04-15T12:11:03.376Z,979.2127
2023-04-15T12:12:03.547Z,978.9928
2023-04-15T12:13:03.850Z,979.1096
2023-04-15T12:14:05.039Z,979.2568
2023-04-15T12:15:04.585Z,979.2371
2023-04-15T12:16:03.394Z,979.2609
2023-04-15T12:17:03.359Z,979.274
2023-04-15T12:18:04.008Z,979.3026
2023-04-15T12:19:05.848Z,979.3075
2023-04-15T12:20:03.609Z,979.3426
2023-04-15T12:21:03.210Z,979.2151
2023-04-15T12:22:05.822Z,979.2943
2023-04-15T12:23:06.116Z,979.2986
2023-04-15T12:24:06.708Z,979.233
2023-04-15T12:25:04.102Z,979.2616
2023-04-15T12:26:03.952Z,979.3403
2023-04-15T12:27:03.634Z,979.3801
2023-04-15T12:28:03.563Z,979.2591
2023-04-15T12:29:05.558Z,979.4325
2023-04-15T12:30:04.290Z,979.3885
2023-04-15T12:31:05.458Z,979.4897
2023-04-15T12:32:03.607Z,979.3645
2023-04-15T12:33:03.064Z,979.3943
2023-04-15T12:34:06.645Z,979.6582
2023-04-15T12:35:03.915Z,979.5527
2023-04-15T12:36:03.867Z,979.4847
2023-04-15T12:37:03.524Z,979.4472
2023-04-15T12:38:04.230Z,979.4866
2023-04-15T12:39:05.742Z,979.3436
2023-04-15T12:40:03.497Z,979.5469
2023-04-15T12:41:03.081Z,979.4391
2023-04-15T12:42:03.765Z,979.69
2023-04-15T12:43:03.744Z,979.5879
2023-04-15T12:44:06.671Z,979.5879
2023-04-15T12:45:03.662Z,979.6582
2023-04-15T12:46:03.604Z,979.4866
2023-04-15T12:47:03.374Z,979.3502
2023-04-15T12:48:03.973Z,979.5755
2023-04-15T12:49:04.768Z,979.4789
2023-04-15T12:50:03.169Z,979.6231
2023-04-15T12:51:05.645Z,979.5879
2023-04-15T12:52:03.715Z,979.5968
2023-04-15T12:53:02.633Z,979.5175
2023-04-15T12:54:05.402Z,979.5879
2023-04-15T12:55:03.478Z,979.6934
2023-04-15T12:56:03.244Z,979.5755
2023-04-15T12:57:06.255Z,979.6042
2023-04-15T12:58:05.563Z,979.6024
2023-04-15T12:59:04.525Z,979.6419
2023-04-15T13:00:05.384Z,979.69
2023-04-15T13:01:04.448Z,979.9088
2023-04-15T13:02:04.570Z,979.6416
2023-04-15T13:03:06.241Z,979.7709
2023-04-15T13:04:06.086Z,979.7506
2023-04-15T13:05:04.885Z,979.7023
2023-04-15T13:06:04.213Z,979.877
2023-04-15T13:07:03.517Z,979.6517
2023-04-15T13:08:03.095Z,979.6582
2023-04-15T13:09:05.806Z,979.8061
2023-04-15T13:10:03.688Z,979.9511
2023-04-15T13:11:03.243Z,979.9863
2023-04-15T13:12:03.891Z,979.8313
2023-04-15T13:13:03.548Z,979.8158
2023-04-15T13:14:06.003Z,979.7563
2023-04-15T13:15:05.601Z,979.8267
2023-04-15T13:16:04.313Z,979.7249
2023-04-15T13:17:03.638Z,979.7123
2023-04-15T13:18:03.422Z,979.9509
2023-04-15T13:19:05.890Z,980.0742
2023-04-15T13:20:04.197Z,979.8267
2023-04-15T13:21:05.274Z,979.8982
2023-04-15T13:22:03.994Z,980.0038
2023-04-15T13:23:03.651Z,979.9152
2023-04-15T13:24:04.953Z,979.8179
2023-04-15T13:25:04.028Z,979.7721
2023-04-15T13:26:03.481Z,979.9206
2023-04-15T13:27:04.178Z,979.9255
2023-04-15T13:28:03.639Z,979.9344
2023-04-15T13:29:03.693Z,979.963
2023-04-15T13:30:03.218Z,979.9118
2023-04-15T13:31:05.525Z,980.0131
2023-04-15T13:32:05.439Z,979.9845
2023-04-15T13:33:03.708Z,980.0351
2023-04-15T13:34:04.137Z,979.9999
2023-04-15T13:35:03.166Z,979.9152
2023-04-15T13:36:03.643Z,980.094
2023-04-15T13:37:04.966Z,980.1727
2023-04-15T13:38:04.745Z,979.9724
2023-04-15T13:39:04.620Z,980.1727
2023-04-15T13:40:05.645Z,979.9818
2023-04-15T13:41:03.832Z,980.011
2023-04-15T13:42:03.431Z,980.0038
2023-04-15T13:43:04.087Z,980.1155
2023-04-15T13:44:06.201Z,980.0038
2023-04-15T13:45:03.427Z,980.2527
2023-04-15T13:46:03.917Z,980.3232
2023-04-15T13:47:04.087Z,980.1029
2023-04-15T13:48:03.372Z,980.001
2023-04-15T13:49:05.564Z,980.0368
2023-04-15T13:50:03.709Z,980.2599
2023-04-15T13:51:03.565Z,980.3232